Maricao, Puerto Rico
Current Conditions -  °F | °C
As of 9:30 AM on Thursday 27 Nov 2014 (Local Time) from TJBQ Reporting Station
Clear Clear  
Wind Chill: 81°   Ceiling: Unl
Heat Index: 83°   Visibility: 10mi
Dew Point: 66°   Wind: 16mph
Humidity: 61%   Direction: 80°E
Pressure: 30.04"   Gusts: 24mph
Location:  18.18°N, 66.98°W
Report Text: TJBQ 271330Z 08014G21KT 10SM SKC 27/19 A3004 RMK RWY 08 ATIS A
Loading
Personal Weather Stations






























Interactive Weather Map New forecast layout! Learn more

10-Day Weather Forecast

Advertisements
Track Severe Weather on mobile